Estación Meteorológica Peña el Pijo (Robertgarden) [ 11/20/18 01:41:32 CET ]

Fecha Hora Presion(HPa) Temp (°C) Humedad % Rocio (°C) Viento ( m/s) Direccion Lluvia 1Hora(mm) Lluvia 24H(mm) LLuvia Total(mm)
2018-Nov-19 01:01:41 993.000 7.2 92 6.0     1.55 9.84 139.86
2018-Nov-19 02:02:10 992.600 7.0 92 5.8     1.03 11.39 141.41
2018-Nov-19 03:02:08 992.300 6.9 92 5.7     1.55 12.95 142.96
2018-Nov-19 04:02:12 992.000 7.0 92 5.8       13.46 143.48
2018-Nov-19 05:02:12 991.600 6.9 92 5.7       13.98 144.00
2018-Nov-19 06:03:13 991.600 6.9 92 5.7       13.98 144.00
2018-Nov-19 07:01:32 991.600 6.9 92 5.7       13.98 144.00
2018-Nov-19 08:01:55 991.500 6.8 92 5.6     0.51 14.50 144.52
2018-Nov-19 09:01:43 991.900 6.7 92 5.5     0.51 15.02 145.04
2018-Nov-19 10:02:34 992.200 6.9 92 5.7     0.51 15.54 145.55
2018-Nov-19 11:01:47 992.800 7.3 93 6.2     1.03 16.57 146.59
2018-Nov-19 12:01:39 992.700 7.3 92 6.1     1.03 17.61 147.63
2018-Nov-19 13:01:49 992.600 7.3 92 6.1     1.03 18.64 148.66
2018-Nov-19 14:31:46 991.900 8.4 92 7.2       19.16 149.18
2018-Nov-19 15:01:32 991.800 8.8 92 7.6       19.16 149.18
2018-Nov-19 16:01:46 991.900 8.8 91 7.4       19.16 149.18
2018-Nov-19 17:01:38 992.400 8.7 89 7.0       18.64 149.18
2018-Nov-19 18:01:28 992.500 8.1 88 6.2       17.61 149.18
2018-Nov-19 19:01:49 993.000 7.5 89 5.8       15.02 149.18
2018-Nov-19 20:01:51 993.400 7.5 89 5.8       13.98 149.18
2018-Nov-19 21:01:44 993.800 7.6 90 6.1       12.95 149.18
2018-Nov-19 22:01:33 993.900 7.6 90 6.1       11.39 149.18
2018-Nov-19 23:01:38 994.000 7.5 90 6.0       10.87 149.18

Temperatura Máxima:    Temperatura Mínima:
Presión Máxima:994.000 Hpa    Presión Mínima:991.500 Hpa


Volver